createdAt,value
2022-10-26T00:00:32.452Z,91.40
2022-10-26T00:02:59.315Z,91.30
2022-10-26T00:05:26.224Z,91.30
2022-10-26T00:07:53.122Z,91.30
2022-10-26T00:10:21.893Z,91.30
2022-10-26T00:12:51.131Z,91.30
2022-10-26T00:15:21.490Z,91.30
2022-10-26T00:17:48.787Z,91.30
2022-10-26T00:20:15.925Z,91.20
2022-10-26T00:22:42.761Z,91.20
2022-10-26T00:25:09.816Z,91.20
2022-10-26T00:27:36.756Z,91.20
2022-10-26T00:30:07.314Z,91.20
2022-10-26T00:32:34.481Z,91.20
2022-10-26T00:35:10.552Z,91.20
2022-10-26T00:37:48.613Z,91.20
2022-10-26T00:40:15.626Z,91.20
2022-10-26T00:42:42.534Z,91.20
2022-10-26T00:45:24.010Z,91.20
2022-10-26T00:47:58.869Z,91.30
2022-10-26T00:50:39.537Z,91.30
2022-10-26T00:53:06.445Z,91.30
2022-10-26T00:55:38.177Z,91.30
2022-10-26T00:58:06.157Z,91.30
2022-10-26T01:00:33.116Z,91.30
2022-10-26T01:03:01.615Z,91.30
2022-10-26T01:05:28.489Z,91.30
2022-10-26T01:07:55.329Z,91.40
2022-10-26T01:10:22.518Z,91.40
2022-10-26T01:12:49.408Z,91.40
2022-10-26T01:15:16.432Z,91.40
2022-10-26T01:17:46.562Z,91.40
2022-10-26T01:20:36.534Z,91.40
2022-10-26T01:23:18.747Z,91.50
2022-10-26T01:26:19.521Z,91.50
2022-10-26T01:29:19.567Z,91.50
2022-10-26T01:32:12.410Z,91.50
2022-10-26T01:34:48.249Z,91.50
2022-10-26T01:37:19.805Z,91.50
2022-10-26T01:39:55.208Z,91.70
2022-10-26T01:42:22.404Z,91.50
2022-10-26T01:44:52.748Z,91.50
2022-10-26T01:47:20.126Z,91.60
2022-10-26T01:49:54.735Z,91.60
2022-10-26T01:52:21.745Z,91.60
2022-10-26T01:54:48.592Z,91.60
2022-10-26T01:57:17.715Z,91.60
2022-10-26T02:00:05.232Z,91.60
2022-10-26T02:03:12.448Z,91.60
2022-10-26T02:06:17.227Z,91.60
2022-10-26T02:09:02.430Z,91.60
2022-10-26T02:11:29.237Z,91.60
2022-10-26T02:14:24.276Z,91.60
2022-10-26T02:16:56.555Z,91.70
2022-10-26T02:19:42.490Z,91.70
2022-10-26T02:22:47.707Z,91.70
2022-10-26T02:25:21.268Z,91.70
2022-10-26T02:27:51.634Z,91.70
2022-10-26T02:30:18.641Z,91.70
2022-10-26T02:32:47.314Z,91.70
2022-10-26T02:35:15.739Z,91.80
2022-10-26T02:37:42.561Z,91.80
2022-10-26T02:40:11.795Z,91.90
2022-10-26T02:42:40.217Z,91.90
2022-10-26T02:45:08.996Z,92.00
2022-10-26T02:47:35.839Z,92.00
2022-10-26T02:50:02.616Z,92.10
2022-10-26T02:53:05.401Z,92.20
2022-10-26T02:55:40.475Z,92.30
2022-10-26T02:58:12.088Z,92.30
2022-10-26T03:00:38.931Z,92.30
2022-10-26T03:03:05.719Z,92.30
2022-10-26T03:05:32.838Z,92.40
2022-10-26T03:08:00.430Z,92.50
2022-10-26T03:10:27.395Z,92.50
2022-10-26T03:12:54.303Z,92.50
2022-10-26T03:15:21.373Z,92.60
2022-10-26T03:17:48.403Z,92.60
2022-10-26T03:20:15.591Z,92.70
2022-10-26T03:22:42.530Z,92.70
2022-10-26T03:27:36.290Z,92.80
2022-10-26T03:30:03.276Z,92.80
2022-10-26T03:32:30.055Z,92.90
2022-10-26T03:34:56.866Z,92.90
2022-10-26T03:37:23.723Z,92.90
2022-10-26T03:39:50.543Z,93.00
2022-10-26T03:42:17.373Z,93.00
2022-10-26T03:44:44.259Z,93.00
2022-10-26T03:47:11.034Z,93.00
2022-10-26T03:49:37.854Z,93.00
2022-10-26T03:52:04.775Z,93.00
2022-10-26T03:54:31.641Z,93.00
2022-10-26T03:56:58.477Z,93.10
2022-10-26T03:59:25.246Z,93.10
2022-10-26T04:01:55.356Z,93.10
2022-10-26T04:04:24.749Z,93.10
2022-10-26T04:06:51.731Z,93.00
2022-10-26T04:09:18.520Z,92.90
2022-10-26T04:11:45.306Z,92.90
2022-10-26T04:14:12.127Z,92.80
2022-10-26T04:16:38.923Z,92.70
2022-10-26T04:19:06.042Z,92.70
2022-10-26T04:21:33.150Z,92.70
2022-10-26T04:23:59.981Z,92.60
2022-10-26T04:26:26.822Z,92.60
2022-10-26T04:28:53.735Z,92.50
2022-10-26T04:31:20.555Z,92.50
2022-10-26T04:33:47.391Z,92.50
2022-10-26T04:36:14.192Z,92.50
2022-10-26T04:38:41.010Z,92.50
2022-10-26T04:41:07.864Z,92.40
2022-10-26T04:43:34.723Z,92.40
2022-10-26T04:46:01.471Z,92.40
2022-10-26T04:48:28.889Z,92.40
2022-10-26T04:50:59.085Z,92.40
2022-10-26T04:53:26.087Z,92.40
2022-10-26T04:55:59.905Z,92.40
2022-10-26T04:58:27.583Z,92.40
2022-10-26T05:00:54.622Z,92.40
2022-10-26T05:03:21.564Z,92.40
2022-10-26T05:05:48.454Z,92.40
2022-10-26T05:08:15.489Z,92.40
2022-10-26T05:10:42.619Z,92.50
2022-10-26T05:13:09.587Z,92.50
2022-10-26T05:15:36.581Z,92.50
2022-10-26T05:18:05.436Z,92.60
2022-10-26T05:20:34.071Z,92.70
2022-10-26T05:23:02.380Z,92.70
2022-10-26T05:25:30.354Z,92.80
2022-10-26T05:28:04.547Z,92.80
2022-10-26T05:30:31.452Z,92.90
2022-10-26T05:32:59.436Z,92.90
2022-10-26T05:35:26.663Z,92.90
2022-10-26T05:37:53.740Z,92.90
2022-10-26T05:40:20.583Z,93.20
2022-10-26T05:42:47.873Z,93.00
2022-10-26T05:45:14.971Z,93.00
2022-10-26T05:47:42.473Z,93.00
2022-10-26T05:50:09.948Z,92.90
2022-10-26T05:52:43.832Z,92.90
2022-10-26T05:55:12.176Z,92.90
2022-10-26T05:57:39.497Z,92.90
2022-10-26T06:00:12.516Z,92.90
2022-10-26T06:03:05.629Z,92.90
2022-10-26T06:05:53.336Z,92.80
2022-10-26T06:08:21.041Z,92.70
2022-10-26T06:10:48.399Z,92.60
2022-10-26T06:13:15.561Z,92.60
2022-10-26T06:15:54.999Z,92.50
2022-10-26T06:18:30.185Z,92.40
2022-10-26T06:21:20.724Z,92.40
2022-10-26T06:23:58.785Z,92.30
2022-10-26T06:26:31.408Z,92.30
2022-10-26T06:29:20.171Z,92.40
2022-10-26T06:31:47.133Z,92.40
2022-10-26T06:34:16.353Z,92.40
2022-10-26T06:36:43.328Z,92.40
2022-10-26T06:39:11.494Z,92.40
2022-10-26T06:41:38.640Z,92.40
2022-10-26T06:44:06.563Z,92.40
2022-10-26T06:46:40.030Z,92.40
2022-10-26T06:49:29.147Z,92.50
2022-10-26T06:52:01.559Z,92.50
2022-10-26T06:54:49.290Z,92.50
2022-10-26T06:57:17.085Z,92.40
2022-10-26T06:59:51.838Z,92.40
2022-10-26T07:02:19.063Z,92.30
2022-10-26T07:04:46.089Z,92.30
2022-10-26T07:07:14.891Z,92.30
2022-10-26T07:09:41.847Z,92.30
2022-10-26T07:12:08.690Z,92.30
2022-10-26T07:14:35.520Z,92.30
2022-10-26T07:17:02.472Z,92.30
2022-10-26T07:19:29.316Z,92.30
2022-10-26T07:22:00.169Z,92.40
2022-10-26T07:24:27.670Z,92.40
2022-10-26T07:26:55.638Z,92.30
2022-10-26T07:29:23.354Z,92.40
2022-10-26T07:31:50.475Z,92.40
2022-10-26T07:34:17.396Z,92.40
2022-10-26T07:36:44.264Z,92.40
2022-10-26T07:39:11.120Z,92.40
2022-10-26T07:41:38.167Z,92.40
2022-10-26T07:44:05.294Z,92.40
2022-10-26T07:46:32.179Z,92.60
2022-10-26T07:48:59.962Z,92.40
2022-10-26T07:51:26.842Z,92.30
2022-10-26T07:53:53.733Z,92.30
2022-10-26T07:56:20.507Z,92.20
2022-10-26T07:58:47.340Z,92.20
2022-10-26T08:01:15.547Z,92.10
2022-10-26T08:03:42.485Z,92.10
2022-10-26T08:06:10.577Z,92.00
2022-10-26T08:08:37.555Z,91.90
2022-10-26T08:11:05.065Z,91.80
2022-10-26T08:13:32.263Z,91.80
2022-10-26T08:15:59.893Z,91.70
2022-10-26T08:18:27.022Z,91.60
2022-10-26T08:21:01.771Z,91.60
2022-10-26T08:23:37.090Z,91.60
2022-10-26T08:26:04.213Z,91.50
2022-10-26T08:28:31.064Z,91.50
2022-10-26T08:30:58.100Z,91.40
2022-10-26T08:33:25.064Z,91.40
2022-10-26T08:35:56.375Z,91.30
2022-10-26T08:38:23.418Z,91.30
2022-10-26T08:40:50.264Z,91.30
2022-10-26T08:43:26.146Z,91.30
2022-10-26T08:46:05.857Z,91.30
2022-10-26T08:48:34.486Z,91.30
2022-10-26T08:51:16.795Z,91.30
2022-10-26T08:53:59.126Z,91.20
2022-10-26T08:56:38.795Z,91.10
2022-10-26T08:59:22.479Z,91.00
2022-10-26T09:01:49.457Z,90.90
2022-10-26T09:04:16.339Z,90.80
2022-10-26T09:07:13.193Z,90.70
2022-10-26T09:10:01.930Z,90.70
2022-10-26T09:12:53.424Z,90.50
2022-10-26T09:15:29.757Z,90.30
2022-10-26T09:18:12.169Z,90.30
2022-10-26T09:21:20.794Z,90.20
2022-10-26T09:24:05.557Z,90.20
2022-10-26T09:26:33.956Z,90.10
2022-10-26T09:29:05.808Z,90.10
2022-10-26T09:31:43.676Z,90.00
2022-10-26T09:34:41.568Z,90.00
2022-10-26T09:37:22.584Z,90.00
2022-10-26T09:39:53.952Z,90.00
2022-10-26T09:42:24.603Z,90.00
2022-10-26T09:44:57.615Z,90.10
2022-10-26T09:47:53.828Z,90.10
2022-10-26T09:50:27.421Z,90.10
2022-10-26T09:52:54.275Z,90.10
2022-10-26T09:55:22.587Z,90.00
2022-10-26T09:57:54.433Z,90.00
2022-10-26T10:00:22.463Z,89.90
2022-10-26T10:02:56.911Z,90.00
2022-10-26T10:05:50.883Z,90.10
2022-10-26T10:08:26.002Z,90.20
2022-10-26T10:11:09.718Z,90.20
2022-10-26T10:13:37.561Z,90.30
2022-10-26T10:16:24.857Z,90.30
2022-10-26T10:19:01.117Z,90.20
2022-10-26T10:21:38.932Z,89.90
2022-10-26T10:24:28.216Z,88.90
2022-10-26T10:27:17.121Z,88.30
2022-10-26T10:29:44.113Z,88.00
2022-10-26T10:32:47.940Z,87.30
2022-10-26T10:35:25.001Z,86.90
2022-10-26T10:37:52.059Z,86.50
2022-10-26T10:40:21.405Z,86.40
2022-10-26T10:42:49.185Z,85.80
2022-10-26T10:45:38.037Z,85.80
2022-10-26T10:48:05.992Z,85.90
2022-10-26T10:50:33.069Z,86.00
2022-10-26T10:53:23.237Z,85.70
2022-10-26T10:56:11.990Z,85.10
2022-10-26T10:58:57.213Z,84.80
2022-10-26T11:01:25.187Z,84.70
2022-10-26T11:06:41.784Z,83.80
2022-10-26T11:09:12.106Z,83.30
2022-10-26T11:11:45.732Z,82.30
2022-10-26T11:14:22.810Z,81.60
2022-10-26T11:16:58.043Z,81.10
2022-10-26T11:19:30.245Z,81.10
2022-10-26T11:21:57.324Z,80.60
2022-10-26T11:24:27.789Z,80.00
2022-10-26T11:26:59.387Z,79.00
2022-10-26T11:29:30.349Z,78.40
2022-10-26T11:32:20.773Z,77.60
2022-10-26T11:35:10.168Z,77.00
2022-10-26T11:37:52.335Z,76.40
2022-10-26T11:40:54.751Z,75.30
2022-10-26T11:43:41.479Z,74.40
2022-10-26T11:46:28.852Z,73.80
2022-10-26T11:49:14.274Z,73.10
2022-10-26T11:51:41.987Z,72.50
2022-10-26T11:54:15.276Z,72.20
2022-10-26T11:56:43.338Z,71.50
2022-10-26T11:59:33.118Z,72.00
2022-10-26T12:02:20.417Z,70.90
2022-10-26T12:04:48.722Z,70.30
2022-10-26T12:07:26.642Z,71.10
2022-10-26T12:09:53.586Z,71.30
2022-10-26T12:12:38.802Z,72.00
2022-10-26T12:15:14.768Z,72.60
2022-10-26T12:17:47.371Z,73.10
2022-10-26T12:20:33.245Z,72.40
2022-10-26T12:23:00.085Z,73.20
2022-10-26T12:25:26.902Z,64.60
2022-10-26T12:27:55.316Z,65.40
2022-10-26T12:30:22.173Z,65.30
2022-10-26T12:32:53.021Z,65.30
2022-10-26T12:35:44.903Z,64.90
2022-10-26T12:38:37.543Z,64.80
2022-10-26T12:41:04.355Z,65.70
2022-10-26T12:43:31.182Z,66.40
2022-10-26T12:46:13.493Z,67.10
2022-10-26T12:48:50.062Z,67.20
2022-10-26T12:51:22.739Z,67.90
2022-10-26T12:54:02.795Z,68.00
2022-10-26T12:56:55.145Z,68.10
2022-10-26T12:59:38.604Z,68.50
2022-10-26T13:02:26.683Z,68.40
2022-10-26T13:05:04.077Z,67.70
2022-10-26T13:07:40.083Z,67.10
2022-10-26T13:10:22.915Z,66.50
2022-10-26T13:12:53.122Z,66.00
2022-10-26T13:15:36.081Z,65.50
2022-10-26T13:18:08.081Z,65.00
2022-10-26T13:20:35.971Z,65.30
2022-10-26T13:23:03.870Z,65.90
2022-10-26T13:25:31.143Z,66.20
2022-10-26T13:28:06.653Z,66.50
2022-10-26T13:30:33.503Z,66.90
2022-10-26T13:33:00.752Z,67.50
2022-10-26T13:35:27.605Z,67.40
2022-10-26T13:37:55.093Z,67.20
2022-10-26T13:40:27.227Z,67.00
2022-10-26T13:42:55.762Z,66.10
2022-10-26T13:45:29.862Z,65.10
2022-10-26T13:48:18.997Z,63.70
2022-10-26T13:50:53.317Z,63.00
2022-10-26T13:53:28.035Z,62.10
2022-10-26T13:56:03.362Z,61.90
2022-10-26T13:58:52.826Z,62.60
2022-10-26T14:01:24.589Z,62.70
2022-10-26T14:03:51.519Z,62.70
2022-10-26T14:06:23.149Z,62.80
2022-10-26T14:08:50.700Z,62.90
2022-10-26T14:11:20.206Z,62.90
2022-10-26T14:13:48.427Z,62.80
2022-10-26T14:16:18.342Z,63.00
2022-10-26T14:18:46.058Z,63.20
2022-10-26T14:21:17.906Z,63.50
2022-10-26T14:23:50.083Z,63.60
2022-10-26T14:26:50.631Z,63.60
2022-10-26T14:29:21.061Z,63.00
2022-10-26T14:31:49.918Z,62.60
2022-10-26T14:34:17.073Z,62.40
2022-10-26T14:36:48.913Z,62.10
2022-10-26T14:39:23.930Z,62.10
2022-10-26T14:41:51.028Z,62.50
2022-10-26T14:44:20.835Z,62.60
2022-10-26T14:46:48.110Z,62.30
2022-10-26T14:49:25.551Z,62.40
2022-10-26T14:51:59.855Z,62.50
2022-10-26T14:54:28.687Z,62.90
2022-10-26T14:56:55.565Z,63.70
2022-10-26T14:59:30.340Z,64.20
2022-10-26T15:02:16.311Z,64.60
2022-10-26T15:04:57.732Z,64.70
2022-10-26T15:07:25.087Z,64.60
2022-10-26T15:09:52.483Z,65.00
2022-10-26T15:12:38.044Z,64.90
2022-10-26T15:15:14.208Z,65.30
2022-10-26T15:17:52.584Z,65.60
2022-10-26T15:20:24.765Z,65.80
2022-10-26T15:22:53.369Z,65.70
2022-10-26T15:25:27.601Z,65.90
2022-10-26T15:27:54.643Z,66.30
2022-10-26T15:30:26.616Z,66.60
2022-10-26T15:32:54.470Z,66.90
2022-10-26T15:35:25.012Z,67.20
2022-10-26T15:37:52.762Z,67.50
2022-10-26T15:40:19.901Z,67.80
2022-10-26T15:42:50.155Z,68.10
2022-10-26T15:45:17.367Z,68.50
2022-10-26T15:47:44.294Z,68.90
2022-10-26T15:50:18.465Z,69.20
2022-10-26T15:52:48.255Z,69.60
2022-10-26T15:55:17.413Z,70.10
2022-10-26T15:57:44.584Z,70.40
2022-10-26T16:00:15.585Z,70.80
2022-10-26T16:02:43.004Z,71.20
2022-10-26T16:05:12.169Z,71.40
2022-10-26T16:07:39.752Z,71.70
2022-10-26T16:10:06.975Z,71.90
2022-10-26T16:12:35.062Z,72.30
2022-10-26T16:15:06.304Z,72.60
2022-10-26T16:17:33.496Z,72.80
2022-10-26T16:20:02.292Z,73.20
2022-10-26T16:22:31.049Z,73.50
2022-10-26T16:24:59.638Z,73.80
2022-10-26T16:27:26.489Z,74.20
2022-10-26T16:29:53.372Z,74.50
2022-10-26T16:32:20.238Z,74.80
2022-10-26T16:34:47.049Z,75.00
2022-10-26T16:37:13.921Z,75.40
2022-10-26T16:39:40.701Z,75.70
2022-10-26T16:42:07.514Z,76.00
2022-10-26T16:44:34.967Z,76.30
2022-10-26T16:47:01.750Z,76.50
2022-10-26T16:49:28.539Z,76.80
2022-10-26T16:51:57.505Z,77.10
2022-10-26T16:54:25.948Z,77.30
2022-10-26T16:56:52.728Z,77.60
2022-10-26T16:59:19.646Z,77.90
2022-10-26T17:01:46.961Z,78.10
2022-10-26T17:04:13.906Z,78.40
2022-10-26T17:06:40.739Z,78.70
2022-10-26T17:09:07.615Z,78.90
2022-10-26T17:11:34.455Z,79.20
2022-10-26T17:14:01.265Z,79.40
2022-10-26T17:16:28.187Z,79.60
2022-10-26T17:18:55.091Z,79.90
2022-10-26T17:21:35.001Z,80.10
2022-10-26T17:24:02.628Z,80.50
2022-10-26T17:26:29.565Z,80.60
2022-10-26T17:28:57.026Z,80.80
2022-10-26T17:31:24.611Z,81.10
2022-10-26T17:33:51.635Z,81.40
2022-10-26T17:36:20.352Z,81.70
2022-10-26T17:38:50.961Z,81.80
2022-10-26T17:41:18.450Z,82.10
2022-10-26T17:43:45.738Z,82.20
2022-10-26T17:46:23.811Z,82.40
2022-10-26T17:48:57.657Z,82.70
2022-10-26T17:51:24.797Z,83.00
2022-10-26T17:53:51.749Z,83.00
2022-10-26T17:56:23.213Z,83.30
2022-10-26T17:58:56.883Z,83.60
2022-10-26T18:01:23.898Z,83.80
2022-10-26T18:03:50.922Z,83.80
2022-10-26T18:06:17.820Z,84.10
2022-10-26T18:08:45.179Z,84.40
2022-10-26T18:11:14.304Z,84.60
2022-10-26T18:13:41.308Z,85.00
2022-10-26T18:16:18.767Z,85.20
2022-10-26T18:18:51.867Z,85.50
2022-10-26T18:21:19.685Z,85.80
2022-10-26T18:23:46.709Z,86.00
2022-10-26T18:26:18.251Z,86.30
2022-10-26T18:28:45.228Z,86.60
2022-10-26T18:31:14.711Z,86.80
2022-10-26T18:33:41.629Z,87.10
2022-10-26T18:36:16.538Z,87.40
2022-10-26T18:38:43.553Z,87.70
2022-10-26T18:41:11.350Z,87.80
2022-10-26T18:43:45.464Z,88.00
2022-10-26T18:46:17.521Z,88.40
2022-10-26T18:48:47.859Z,88.50
2022-10-26T18:51:16.104Z,88.60
2022-10-26T18:53:43.695Z,88.80
2022-10-26T18:56:12.296Z,89.10
2022-10-26T18:58:40.521Z,89.20
2022-10-26T19:01:21.610Z,89.50
2022-10-26T19:03:48.766Z,89.80
2022-10-26T19:06:17.203Z,89.70
2022-10-26T19:08:44.295Z,90.00
2022-10-26T19:11:12.678Z,90.00
2022-10-26T19:13:39.541Z,90.20
2022-10-26T19:16:12.715Z,90.20
2022-10-26T19:18:48.977Z,90.20
2022-10-26T19:21:17.838Z,90.30
2022-10-26T19:23:45.957Z,90.60
2022-10-26T19:26:14.556Z,90.40
2022-10-26T19:28:41.850Z,90.50
2022-10-26T19:31:09.993Z,90.50
2022-10-26T19:33:37.090Z,90.60
2022-10-26T19:36:05.906Z,90.60
2022-10-26T19:38:32.848Z,90.70
2022-10-26T19:41:04.323Z,90.70
2022-10-26T19:43:32.002Z,90.80
2022-10-26T19:45:59.397Z,90.80
2022-10-26T19:48:26.230Z,90.90
2022-10-26T19:50:57.645Z,91.00
2022-10-26T19:53:24.648Z,91.00
2022-10-26T19:55:57.269Z,91.10
2022-10-26T19:58:28.537Z,91.20
2022-10-26T20:00:59.624Z,91.20
2022-10-26T20:03:28.890Z,91.20
2022-10-26T20:05:56.981Z,91.30
2022-10-26T20:08:24.262Z,91.30
2022-10-26T20:10:53.228Z,91.30
2022-10-26T20:13:20.063Z,91.30
2022-10-26T20:15:46.906Z,91.40
2022-10-26T20:18:13.815Z,91.30
2022-10-26T20:20:40.676Z,91.30
2022-10-26T20:23:08.376Z,91.30
2022-10-26T20:25:39.118Z,91.40
2022-10-26T20:28:06.176Z,91.40
2022-10-26T20:30:33.371Z,91.40
2022-10-26T20:33:00.315Z,91.50
2022-10-26T20:35:27.186Z,91.50
2022-10-26T20:37:54.486Z,91.50
2022-10-26T20:40:21.680Z,91.50
2022-10-26T20:42:52.463Z,91.50
2022-10-26T20:45:24.924Z,91.50
2022-10-26T20:47:52.296Z,91.60
2022-10-26T20:50:19.825Z,91.60
2022-10-26T20:52:48.854Z,91.60
2022-10-26T20:55:31.149Z,91.70
2022-10-26T20:58:09.440Z,91.80
2022-10-26T21:00:40.349Z,91.80
2022-10-26T21:03:08.894Z,91.80
2022-10-26T21:05:35.789Z,91.80
2022-10-26T21:08:02.634Z,91.80
2022-10-26T21:10:29.805Z,91.80
2022-10-26T21:12:56.641Z,91.80
2022-10-26T21:15:23.457Z,91.80
2022-10-26T21:17:50.630Z,91.80
2022-10-26T21:20:17.655Z,91.90
2022-10-26T21:22:44.447Z,91.90
2022-10-26T21:25:11.238Z,91.90
2022-10-26T21:27:38.108Z,92.00
2022-10-26T21:30:05.527Z,92.00
2022-10-26T21:32:32.361Z,92.00
2022-10-26T21:34:59.131Z,92.00
2022-10-26T21:37:26.663Z,92.00
2022-10-26T21:39:53.778Z,92.10
2022-10-26T21:42:20.864Z,92.10
2022-10-26T21:44:47.693Z,92.20
2022-10-26T21:47:14.477Z,92.30
2022-10-26T21:52:13.032Z,92.40
2022-10-26T21:54:39.854Z,92.40
2022-10-26T21:57:06.672Z,92.50
2022-10-26T21:59:33.477Z,92.50
2022-10-26T22:02:00.430Z,92.50
2022-10-26T22:04:27.386Z,92.60
2022-10-26T22:06:54.242Z,92.60
2022-10-26T22:09:21.019Z,92.60
2022-10-26T22:11:47.860Z,92.70
2022-10-26T22:14:14.766Z,92.80
2022-10-26T22:16:41.587Z,92.80
2022-10-26T22:19:08.489Z,92.90
2022-10-26T22:21:36.937Z,92.90
2022-10-26T22:24:03.817Z,93.00
2022-10-26T22:26:32.278Z,93.00
2022-10-26T22:28:59.199Z,93.00
2022-10-26T22:31:33.797Z,93.00
2022-10-26T22:34:06.380Z,93.10
2022-10-26T22:36:34.690Z,93.10
2022-10-26T22:39:01.587Z,93.10
2022-10-26T22:41:28.421Z,93.10
2022-10-26T22:43:55.289Z,93.10
2022-10-26T22:46:23.454Z,93.10
2022-10-26T22:48:57.401Z,93.20
2022-10-26T22:51:24.949Z,93.20
2022-10-26T22:53:52.950Z,93.20
2022-10-26T22:56:19.948Z,93.30
2022-10-26T22:58:46.822Z,93.40
2022-10-26T23:01:18.405Z,93.50
2022-10-26T23:03:45.556Z,93.50
2022-10-26T23:06:14.605Z,93.50
2022-10-26T23:08:41.393Z,93.50
2022-10-26T23:11:12.893Z,93.50
2022-10-26T23:13:40.136Z,93.50
2022-10-26T23:16:14.295Z,93.50
2022-10-26T23:18:41.303Z,93.60
2022-10-26T23:21:08.756Z,93.60
2022-10-26T23:23:35.884Z,93.60
2022-10-26T23:26:13.079Z,93.60
2022-10-26T23:28:39.991Z,93.60
2022-10-26T23:31:06.910Z,93.50
2022-10-26T23:33:33.776Z,93.50
2022-10-26T23:36:01.231Z,93.50
2022-10-26T23:38:28.140Z,93.50
2022-10-26T23:40:56.475Z,93.50
2022-10-26T23:43:23.360Z,93.50
2022-10-26T23:45:50.313Z,93.50
2022-10-26T23:48:17.276Z,93.50
2022-10-26T23:50:44.515Z,93.50
2022-10-26T23:53:11.829Z,93.50
2022-10-26T23:55:38.885Z,93.50
2022-10-26T23:58:05.926Z,93.50
